createdAt,value
2022-10-10T00:01:37.416Z,97675.00
2022-10-10T00:04:06.826Z,97683.00
2022-10-10T00:06:35.830Z,97682.00
2022-10-10T00:09:07.000Z,97694.00
2022-10-10T00:11:36.288Z,97677.00
2022-10-10T00:14:04.865Z,97682.00
2022-10-10T00:16:33.033Z,97674.00
2022-10-10T00:19:01.237Z,97678.00
2022-10-10T00:21:29.468Z,97676.00
2022-10-10T00:23:57.661Z,97674.00
2022-10-10T00:26:27.170Z,97680.00
2022-10-10T00:28:55.358Z,97671.00
2022-10-10T00:31:23.589Z,97661.00
2022-10-10T00:33:52.211Z,97676.00
2022-10-10T00:36:21.393Z,97675.00
2022-10-10T00:38:49.816Z,97661.00
2022-10-10T00:41:18.143Z,97661.00
2022-10-10T00:44:07.043Z,97655.00
2022-10-10T00:46:35.430Z,97658.00
2022-10-10T00:49:07.738Z,97648.00
2022-10-10T00:51:35.865Z,97662.00
2022-10-10T00:54:08.646Z,97667.00
2022-10-10T00:56:44.923Z,97657.00
2022-10-10T00:59:16.352Z,97669.00
2022-10-10T01:01:44.738Z,97655.00
2022-10-10T01:04:33.460Z,97653.00
2022-10-10T01:07:04.020Z,97642.00
2022-10-10T01:09:34.040Z,97646.00
2022-10-10T01:12:16.582Z,97644.00
2022-10-10T01:14:56.288Z,97647.00
2022-10-10T01:17:33.853Z,97656.00
2022-10-10T01:20:45.705Z,97640.00
2022-10-10T01:23:58.832Z,97643.00
2022-10-10T01:27:13.459Z,97633.00
2022-10-10T01:29:48.753Z,97627.00
2022-10-10T01:32:24.899Z,97619.00
2022-10-10T01:35:15.899Z,97630.00
2022-10-10T01:37:54.880Z,97629.00
2022-10-10T01:40:32.828Z,97637.00
2022-10-10T01:43:05.489Z,97631.00
2022-10-10T01:45:35.442Z,97632.00
2022-10-10T01:48:07.075Z,97623.00
2022-10-10T01:50:52.485Z,97632.00
2022-10-10T01:53:28.723Z,97625.00
2022-10-10T01:56:07.060Z,97620.00
2022-10-10T01:58:52.114Z,97610.00
2022-10-10T02:01:28.359Z,97628.00
2022-10-10T02:04:07.515Z,97624.00
2022-10-10T02:06:43.448Z,97637.00
2022-10-10T02:09:18.350Z,97633.00
2022-10-10T02:11:48.956Z,97613.00
2022-10-10T02:14:23.033Z,97626.00
2022-10-10T02:16:56.580Z,97620.00
2022-10-10T02:19:27.647Z,97616.00
2022-10-10T02:21:57.316Z,97628.00
2022-10-10T02:24:26.405Z,97625.00
2022-10-10T02:27:02.024Z,97626.00
2022-10-10T02:29:35.132Z,97610.00
2022-10-10T02:32:12.053Z,97612.00
2022-10-10T02:34:46.101Z,97626.00
2022-10-10T02:37:17.255Z,97618.00
2022-10-10T02:39:51.080Z,97616.00
2022-10-10T02:42:22.667Z,97618.00
2022-10-10T02:44:51.685Z,97614.00
2022-10-10T02:47:21.248Z,97612.00
2022-10-10T02:49:49.769Z,97602.00
2022-10-10T02:52:18.910Z,97598.00
2022-10-10T02:54:47.045Z,97604.00
2022-10-10T02:57:15.337Z,97612.00
2022-10-10T02:59:43.777Z,97612.00
2022-10-10T03:02:12.397Z,97603.00
2022-10-10T03:04:42.106Z,97610.00
2022-10-10T03:07:10.424Z,97617.00
2022-10-10T03:09:38.572Z,97621.00
2022-10-10T03:12:07.013Z,97616.00
2022-10-10T03:14:35.438Z,97595.00
2022-10-10T03:17:03.616Z,97614.00
2022-10-10T03:19:31.680Z,97605.00
2022-10-10T03:22:01.164Z,97616.00
2022-10-10T03:24:29.657Z,97617.00
2022-10-10T03:26:57.776Z,97612.00
2022-10-10T03:29:25.850Z,97618.00
2022-10-10T03:31:53.942Z,97613.00
2022-10-10T03:34:22.076Z,97607.00
2022-10-10T03:36:50.166Z,97611.00
2022-10-10T03:39:19.860Z,97599.00
2022-10-10T03:41:50.271Z,97607.00
2022-10-10T03:44:18.618Z,97613.00
2022-10-10T03:46:46.900Z,97612.00
2022-10-10T03:49:15.324Z,97600.00
2022-10-10T03:51:43.538Z,97604.00
2022-10-10T03:54:11.673Z,97602.00
2022-10-10T03:56:41.132Z,97603.00
2022-10-10T03:59:09.248Z,97601.00
2022-10-10T04:01:37.495Z,97610.00
2022-10-10T04:04:06.047Z,97594.00
2022-10-10T04:06:34.216Z,97608.00
2022-10-10T04:09:02.333Z,97598.00
2022-10-10T04:11:30.396Z,97600.00
2022-10-10T04:13:59.837Z,97607.00
2022-10-10T04:16:27.932Z,97611.00
2022-10-10T04:18:56.014Z,97616.00
2022-10-10T04:21:24.140Z,97614.00
2022-10-10T04:23:52.285Z,97599.00
2022-10-10T04:26:20.428Z,97595.00
2022-10-10T04:28:48.566Z,97609.00
2022-10-10T04:31:18.063Z,97611.00
2022-10-10T04:33:46.136Z,97609.00
2022-10-10T04:36:14.335Z,97615.00
2022-10-10T04:38:43.217Z,97602.00
2022-10-10T04:41:11.472Z,97609.00
2022-10-10T04:43:39.634Z,97597.00
2022-10-10T04:46:07.795Z,97599.00
2022-10-10T04:48:38.689Z,97598.00
2022-10-10T04:51:07.237Z,97603.00
2022-10-10T04:53:35.424Z,97608.00
2022-10-10T04:56:03.948Z,97599.00
2022-10-10T04:58:32.033Z,97602.00
2022-10-10T05:01:00.241Z,97595.00
2022-10-10T05:03:29.355Z,97604.00
2022-10-10T05:05:58.819Z,97609.00
2022-10-10T05:08:26.965Z,97609.00
2022-10-10T05:10:55.062Z,97598.00
2022-10-10T05:13:23.203Z,97603.00
2022-10-10T05:15:53.170Z,97602.00
2022-10-10T05:18:21.849Z,97598.00
2022-10-10T05:20:50.231Z,97594.00
2022-10-10T05:23:19.761Z,97591.00
2022-10-10T05:25:51.032Z,97596.00
2022-10-10T05:28:19.796Z,97600.00
2022-10-10T05:30:47.955Z,97597.00
2022-10-10T05:33:16.070Z,97609.00
2022-10-10T05:35:44.272Z,97604.00
2022-10-10T05:38:12.531Z,97602.00
2022-10-10T05:40:43.012Z,97595.00
2022-10-10T05:43:11.755Z,97598.00
2022-10-10T05:45:39.845Z,97606.00
2022-10-10T05:48:07.913Z,97600.00
2022-10-10T05:50:40.587Z,97611.00
2022-10-10T05:53:08.708Z,97603.00
2022-10-10T05:55:36.835Z,97616.00
2022-10-10T05:58:06.934Z,97604.00
2022-10-10T06:00:36.481Z,97624.00
2022-10-10T06:03:05.034Z,97621.00
2022-10-10T06:05:33.196Z,97624.00
2022-10-10T06:08:09.297Z,97628.00
2022-10-10T06:10:41.379Z,97620.00
2022-10-10T06:13:11.552Z,97628.00
2022-10-10T06:15:39.906Z,97622.00
2022-10-10T06:18:09.025Z,97630.00
2022-10-10T06:20:37.848Z,97624.00
2022-10-10T06:23:07.889Z,97623.00
2022-10-10T06:25:41.826Z,97628.00
2022-10-10T06:28:12.457Z,97626.00
2022-10-10T06:30:45.104Z,97616.00
2022-10-10T06:33:15.070Z,97623.00
2022-10-10T06:35:45.308Z,97632.00
2022-10-10T06:38:15.454Z,97629.00
2022-10-10T06:40:44.977Z,97629.00
2022-10-10T06:43:19.207Z,97633.00
2022-10-10T06:45:51.787Z,97632.00
2022-10-10T06:48:19.995Z,97645.00
2022-10-10T06:50:58.624Z,97640.00
2022-10-10T06:53:27.763Z,97644.00
2022-10-10T06:55:56.608Z,97639.00
2022-10-10T06:58:28.687Z,97637.00
2022-10-10T07:00:59.899Z,97629.00
2022-10-10T07:03:29.837Z,97648.00
2022-10-10T07:06:01.260Z,97649.00
2022-10-10T07:08:30.597Z,97642.00
2022-10-10T07:10:58.777Z,97644.00
2022-10-10T07:13:28.195Z,97650.00
2022-10-10T07:15:56.498Z,97656.00
2022-10-10T07:18:24.813Z,97655.00
2022-10-10T07:20:57.301Z,97660.00
2022-10-10T07:23:25.684Z,97666.00
2022-10-10T07:25:59.265Z,97648.00
2022-10-10T07:28:29.037Z,97661.00
2022-10-10T07:31:02.268Z,97662.00
2022-10-10T07:33:33.998Z,97658.00
2022-10-10T07:36:02.108Z,97666.00
2022-10-10T07:38:30.207Z,97660.00
2022-10-10T07:40:58.623Z,97676.00
2022-10-10T07:43:28.183Z,97672.00
2022-10-10T07:45:58.483Z,97674.00
2022-10-10T07:48:26.788Z,97674.00
2022-10-10T07:50:54.911Z,97671.00
2022-10-10T07:53:23.012Z,97676.00
2022-10-10T07:55:51.291Z,97687.00
2022-10-10T07:58:19.473Z,97685.00
2022-10-10T08:00:48.875Z,97671.00
2022-10-10T08:03:17.240Z,97674.00
2022-10-10T08:05:46.928Z,97673.00
2022-10-10T08:08:15.107Z,97674.00
2022-10-10T08:10:45.361Z,97679.00
2022-10-10T08:13:13.571Z,97666.00
2022-10-10T08:15:42.131Z,97678.00
2022-10-10T08:18:11.607Z,97686.00
2022-10-10T08:20:40.142Z,97688.00
2022-10-10T08:23:08.251Z,97689.00
2022-10-10T08:25:36.738Z,97681.00
2022-10-10T08:28:05.685Z,97701.00
2022-10-10T08:30:33.912Z,97689.00
2022-10-10T08:33:02.458Z,97681.00
2022-10-10T08:35:31.890Z,97689.00
2022-10-10T08:37:59.925Z,97679.00
2022-10-10T08:40:28.774Z,97693.00
2022-10-10T08:43:01.577Z,97686.00
2022-10-10T08:45:33.814Z,97690.00
2022-10-10T08:48:08.163Z,97691.00
2022-10-10T08:50:43.738Z,97685.00
2022-10-10T08:53:21.306Z,97685.00
2022-10-10T08:55:50.632Z,97685.00
2022-10-10T08:58:25.138Z,97677.00
2022-10-10T09:01:04.139Z,97679.00
2022-10-10T09:03:40.236Z,97683.00
2022-10-10T09:06:28.045Z,97685.00
2022-10-10T09:09:08.905Z,97689.00
2022-10-10T09:11:54.212Z,97693.00
2022-10-10T09:14:36.613Z,97680.00
2022-10-10T09:17:19.352Z,97696.00
2022-10-10T09:20:03.687Z,97692.00
2022-10-10T09:22:40.860Z,97694.00
2022-10-10T09:25:21.833Z,97685.00
2022-10-10T09:28:01.813Z,97696.00
2022-10-10T09:30:35.258Z,97691.00
2022-10-10T09:33:24.643Z,97689.00
2022-10-10T09:35:57.590Z,97676.00
2022-10-10T09:38:36.323Z,97689.00
2022-10-10T09:41:15.449Z,97686.00
2022-10-10T09:43:44.104Z,97686.00
2022-10-10T09:46:12.355Z,97690.00
2022-10-10T09:48:43.043Z,97691.00
2022-10-10T09:51:17.424Z,97683.00
2022-10-10T09:53:49.923Z,97689.00
2022-10-10T09:56:22.154Z,97690.00
2022-10-10T09:58:53.258Z,97701.00
2022-10-10T10:01:24.275Z,97698.00
2022-10-10T10:04:27.790Z,97698.00
2022-10-10T10:07:08.838Z,97708.00
2022-10-10T10:09:39.601Z,97696.00
2022-10-10T10:12:08.013Z,97698.00
2022-10-10T10:14:39.508Z,97697.00
2022-10-10T10:17:10.952Z,97696.00
2022-10-10T10:19:41.788Z,97691.00
2022-10-10T10:22:32.747Z,97706.00
2022-10-10T10:25:33.129Z,97698.00
2022-10-10T10:28:21.773Z,97696.00
2022-10-10T10:30:53.239Z,97688.00
2022-10-10T10:33:42.105Z,97692.00
2022-10-10T10:36:28.394Z,97707.00
2022-10-10T10:39:13.193Z,97697.00
2022-10-10T10:41:52.639Z,97703.00
2022-10-10T10:44:35.932Z,97701.00
2022-10-10T10:47:27.464Z,97700.00
2022-10-10T10:50:16.906Z,97694.00
2022-10-10T10:52:59.142Z,97694.00
2022-10-10T10:55:39.471Z,97698.00
2022-10-10T11:01:57.017Z,97703.00
2022-10-10T11:05:22.282Z,97696.00
2022-10-10T11:07:58.532Z,97696.00
2022-10-10T11:10:39.603Z,97704.00
2022-10-10T11:13:20.404Z,97694.00
2022-10-10T11:16:20.327Z,97687.00
2022-10-10T11:18:53.675Z,97691.00
2022-10-10T11:21:27.836Z,97680.00
2022-10-10T11:24:03.708Z,97684.00
2022-10-10T11:26:38.170Z,97693.00
2022-10-10T11:29:14.551Z,97689.00
2022-10-10T11:31:53.355Z,97695.00
2022-10-10T11:34:28.342Z,97683.00
2022-10-10T11:37:05.956Z,97686.00
2022-10-10T11:39:42.851Z,97696.00
2022-10-10T11:42:19.783Z,97679.00
2022-10-10T11:44:56.906Z,97679.00
2022-10-10T11:47:36.637Z,97686.00
2022-10-10T11:50:14.690Z,97690.00
2022-10-10T11:52:56.891Z,97674.00
2022-10-10T11:55:37.480Z,97666.00
2022-10-10T11:58:35.403Z,97673.00
2022-10-10T12:01:14.548Z,97674.00
2022-10-10T12:03:44.447Z,97664.00
2022-10-10T12:06:25.144Z,97656.00
2022-10-10T12:09:02.752Z,97661.00
2022-10-10T12:11:38.643Z,97659.00
2022-10-10T12:14:14.568Z,97645.00
2022-10-10T12:16:43.109Z,97662.00
2022-10-10T12:19:20.559Z,97655.00
2022-10-10T12:21:59.471Z,97658.00
2022-10-10T12:24:30.287Z,97661.00
2022-10-10T12:27:44.396Z,97671.00
2022-10-10T12:30:26.268Z,97658.00
2022-10-10T12:32:55.517Z,97651.00
2022-10-10T12:35:41.892Z,97647.00
2022-10-10T12:38:21.236Z,97654.00
2022-10-10T12:41:14.435Z,97649.00
2022-10-10T12:43:52.356Z,97654.00
2022-10-10T12:46:28.536Z,97646.00
2022-10-10T12:49:16.997Z,97657.00
2022-10-10T12:52:01.082Z,97653.00
2022-10-10T12:54:38.328Z,97648.00
2022-10-10T12:57:19.656Z,97639.00
2022-10-10T12:59:48.359Z,97635.00
2022-10-10T13:02:23.177Z,97639.00
2022-10-10T13:04:55.251Z,97644.00
2022-10-10T13:07:26.829Z,97640.00
2022-10-10T13:10:06.272Z,97633.00
2022-10-10T13:12:35.379Z,97646.00
2022-10-10T13:15:03.644Z,97641.00
2022-10-10T13:17:37.932Z,97630.00
2022-10-10T13:20:26.770Z,97632.00
2022-10-10T13:22:58.121Z,97630.00
2022-10-10T13:25:27.224Z,97630.00
2022-10-10T13:27:55.675Z,97634.00
2022-10-10T13:30:26.529Z,97635.00
2022-10-10T13:32:57.023Z,97626.00
2022-10-10T13:35:28.517Z,97633.00
2022-10-10T13:38:01.985Z,97629.00
2022-10-10T13:40:30.367Z,97628.00
2022-10-10T13:42:59.029Z,97635.00
2022-10-10T13:45:38.993Z,97639.00
2022-10-10T13:48:38.188Z,97627.00
2022-10-10T13:51:10.915Z,97632.00
2022-10-10T13:53:55.125Z,97625.00
2022-10-10T13:56:38.185Z,97630.00
2022-10-10T13:59:12.945Z,97632.00
2022-10-10T14:01:46.687Z,97635.00
2022-10-10T14:04:26.623Z,97638.00
2022-10-10T14:07:04.273Z,97638.00
2022-10-10T14:09:39.155Z,97642.00
2022-10-10T14:12:17.737Z,97634.00
2022-10-10T14:14:49.399Z,97639.00
2022-10-10T14:17:18.122Z,97638.00
2022-10-10T14:19:48.849Z,97637.00
2022-10-10T14:22:17.434Z,97634.00
2022-10-10T14:24:47.319Z,97634.00
2022-10-10T14:27:24.426Z,97638.00
2022-10-10T14:29:54.164Z,97645.00
2022-10-10T14:32:22.997Z,97642.00
2022-10-10T14:34:51.408Z,97652.00
2022-10-10T14:37:23.917Z,97643.00
2022-10-10T14:39:55.372Z,97644.00
2022-10-10T14:42:25.804Z,97643.00
2022-10-10T14:44:57.081Z,97632.00
2022-10-10T14:47:26.604Z,97639.00
2022-10-10T14:49:57.496Z,97639.00
2022-10-10T14:52:25.764Z,97635.00
2022-10-10T14:54:55.200Z,97634.00
2022-10-10T14:57:23.383Z,97631.00
2022-10-10T14:59:51.522Z,97632.00
2022-10-10T15:02:21.912Z,97628.00
2022-10-10T15:04:51.072Z,97635.00
2022-10-10T15:07:20.058Z,97635.00
2022-10-10T15:10:31.600Z,97639.00
2022-10-10T15:12:43.758Z,97638.00
2022-10-10T15:15:14.496Z,97637.00
2022-10-10T15:17:43.497Z,97641.00
2022-10-10T15:20:14.482Z,97638.00
2022-10-10T15:22:45.926Z,97644.00
2022-10-10T15:25:14.112Z,97644.00
2022-10-10T15:27:43.500Z,97631.00
2022-10-10T15:30:12.406Z,97644.00
2022-10-10T15:32:43.367Z,97644.00
2022-10-10T15:35:16.833Z,97647.00
2022-10-10T15:37:46.318Z,97644.00
2022-10-10T15:40:19.639Z,97642.00
2022-10-10T15:42:50.199Z,97644.00
2022-10-10T15:45:37.375Z,97649.00
2022-10-10T15:48:07.100Z,97645.00
2022-10-10T15:50:39.138Z,97646.00
2022-10-10T15:53:07.278Z,97639.00
2022-10-10T15:55:35.658Z,97651.00
2022-10-10T15:58:05.297Z,97649.00
2022-10-10T16:00:33.862Z,97650.00
2022-10-10T16:03:02.145Z,97652.00
2022-10-10T16:05:32.303Z,97659.00
2022-10-10T16:08:00.826Z,97660.00
2022-10-10T16:10:28.931Z,97647.00
2022-10-10T16:12:57.190Z,97644.00
2022-10-10T16:15:26.684Z,97647.00
2022-10-10T16:17:54.908Z,97654.00
2022-10-10T16:20:23.040Z,97657.00
2022-10-10T16:22:51.305Z,97658.00
2022-10-10T16:25:22.587Z,97672.00
2022-10-10T16:27:52.570Z,97671.00
2022-10-10T16:30:21.374Z,97663.00
2022-10-10T16:32:51.386Z,97675.00
2022-10-10T16:35:19.540Z,97674.00
2022-10-10T16:37:47.946Z,97680.00
2022-10-10T16:40:16.700Z,97686.00
2022-10-10T16:42:45.035Z,97678.00
2022-10-10T16:45:13.666Z,97681.00
2022-10-10T16:47:41.833Z,97688.00
2022-10-10T16:50:12.259Z,97685.00
2022-10-10T16:52:40.454Z,97688.00
2022-10-10T16:55:11.192Z,97685.00
2022-10-10T16:57:40.169Z,97693.00
2022-10-10T17:00:11.147Z,97686.00
2022-10-10T17:02:42.168Z,97704.00
2022-10-10T17:05:11.916Z,97700.00
2022-10-10T17:07:40.083Z,97699.00
2022-10-10T17:10:09.565Z,97707.00
2022-10-10T17:12:37.718Z,97704.00
2022-10-10T17:15:07.807Z,97703.00
2022-10-10T17:17:36.883Z,97712.00
2022-10-10T17:20:07.112Z,97715.00
2022-10-10T17:22:37.330Z,97720.00
2022-10-10T17:25:06.729Z,97725.00
2022-10-10T17:27:35.863Z,97725.00
2022-10-10T17:30:05.329Z,97720.00
2022-10-10T17:32:33.563Z,97717.00
2022-10-10T17:35:01.694Z,97723.00
2022-10-10T17:37:29.943Z,97727.00
2022-10-10T17:39:59.532Z,97736.00
2022-10-10T17:42:27.697Z,97727.00
2022-10-10T17:44:59.205Z,97728.00
2022-10-10T17:47:27.700Z,97732.00
2022-10-10T17:49:55.860Z,97725.00
2022-10-10T17:52:24.836Z,97739.00
2022-10-10T17:54:53.049Z,97732.00
2022-10-10T17:57:22.613Z,97736.00
2022-10-10T17:59:50.783Z,97738.00
2022-10-10T18:02:20.115Z,97732.00
2022-10-10T18:04:48.304Z,97731.00
2022-10-10T18:07:18.497Z,97736.00
2022-10-10T18:09:47.444Z,97741.00
2022-10-10T18:12:15.669Z,97739.00
2022-10-10T18:14:45.695Z,97740.00
2022-10-10T18:17:16.021Z,97746.00
2022-10-10T18:19:44.424Z,97743.00
2022-10-10T18:22:12.699Z,97748.00
2022-10-10T18:24:41.065Z,97748.00
2022-10-10T18:27:09.261Z,97746.00
2022-10-10T18:29:38.180Z,97736.00
2022-10-10T18:32:07.997Z,97743.00
2022-10-10T18:34:36.373Z,97740.00
2022-10-10T18:37:06.504Z,97743.00
2022-10-10T18:39:35.921Z,97748.00
2022-10-10T18:42:04.528Z,97737.00
2022-10-10T18:44:32.614Z,97741.00
2022-10-10T18:47:02.837Z,97751.00
2022-10-10T18:49:35.139Z,97759.00
2022-10-10T18:52:03.878Z,97758.00
2022-10-10T18:54:33.169Z,97755.00
2022-10-10T18:57:02.515Z,97752.00
2022-10-10T18:59:32.026Z,97744.00
2022-10-10T19:02:00.507Z,97749.00
2022-10-10T19:04:28.876Z,97741.00
2022-10-10T19:06:58.502Z,97748.00
2022-10-10T19:09:26.884Z,97765.00
2022-10-10T19:11:55.414Z,97752.00
2022-10-10T19:14:23.591Z,97754.00
2022-10-10T19:16:51.884Z,97771.00
2022-10-10T19:19:20.814Z,97755.00
2022-10-10T19:21:50.487Z,97771.00
2022-10-10T19:24:21.386Z,97760.00
2022-10-10T19:26:57.160Z,97766.00
2022-10-10T19:29:27.574Z,97777.00
2022-10-10T19:31:56.917Z,97766.00
2022-10-10T19:34:25.581Z,97770.00
2022-10-10T19:36:54.515Z,97765.00
2022-10-10T19:39:24.068Z,97779.00
2022-10-10T19:41:52.440Z,97784.00
2022-10-10T19:44:20.785Z,97782.00
2022-10-10T19:46:48.942Z,97786.00
2022-10-10T19:49:17.061Z,97795.00
2022-10-10T19:51:45.317Z,97801.00
2022-10-10T19:54:13.474Z,97786.00
2022-10-10T19:56:42.944Z,97785.00
2022-10-10T19:59:11.079Z,97789.00
2022-10-10T20:01:39.259Z,97791.00
2022-10-10T20:04:07.417Z,97799.00
2022-10-10T20:06:35.717Z,97791.00
2022-10-10T20:09:08.361Z,97802.00
2022-10-10T20:11:39.641Z,97806.00
2022-10-10T20:14:10.585Z,97809.00
2022-10-10T20:16:39.023Z,97807.00
2022-10-10T20:19:07.329Z,97803.00
2022-10-10T20:21:36.220Z,97803.00
2022-10-10T20:24:09.403Z,97796.00
2022-10-10T20:26:38.464Z,97803.00
2022-10-10T20:29:08.863Z,97804.00
2022-10-10T20:31:38.646Z,97802.00
2022-10-10T20:34:07.758Z,97793.00
2022-10-10T20:36:36.435Z,97804.00
2022-10-10T20:39:08.483Z,97800.00
2022-10-10T20:41:39.374Z,97796.00
2022-10-10T20:44:12.658Z,97793.00
2022-10-10T20:46:48.691Z,97800.00
2022-10-10T20:49:19.732Z,97799.00
2022-10-10T20:51:50.876Z,97814.00
2022-10-10T20:54:21.313Z,97810.00
2022-10-10T20:56:50.144Z,97814.00
2022-10-10T20:59:20.852Z,97817.00
2022-10-10T21:01:49.115Z,97820.00
2022-10-10T21:04:17.827Z,97827.00
2022-10-10T21:06:46.327Z,97833.00
2022-10-10T21:09:16.560Z,97831.00
2022-10-10T21:11:48.717Z,97832.00
2022-10-10T21:14:21.018Z,97845.00
2022-10-10T21:16:50.511Z,97835.00
2022-10-10T21:19:18.597Z,97835.00
2022-10-10T21:21:46.913Z,97839.00
2022-10-10T21:24:15.126Z,97840.00
2022-10-10T21:26:45.331Z,97828.00
2022-10-10T21:29:13.471Z,97830.00
2022-10-10T21:31:43.312Z,97834.00
2022-10-10T21:34:15.633Z,97842.00
2022-10-10T21:36:43.821Z,97843.00
2022-10-10T21:39:12.737Z,97850.00
2022-10-10T21:41:41.412Z,97844.00
2022-10-10T21:44:11.438Z,97863.00
2022-10-10T21:46:39.544Z,97852.00
2022-10-10T21:49:12.085Z,97852.00
2022-10-10T21:51:42.953Z,97866.00
2022-10-10T21:54:11.435Z,97867.00
2022-10-10T21:56:40.395Z,97875.00
2022-10-10T21:59:09.973Z,97894.00
2022-10-10T22:01:38.333Z,97914.00
2022-10-10T22:04:08.276Z,97926.00
2022-10-10T22:06:36.634Z,97922.00
2022-10-10T22:09:07.212Z,97921.00
2022-10-10T22:11:35.836Z,97915.00
2022-10-10T22:14:05.405Z,97915.00
2022-10-10T22:16:34.648Z,97914.00
2022-10-10T22:19:04.183Z,97921.00
2022-10-10T22:21:34.964Z,97927.00
2022-10-10T22:24:06.979Z,97917.00
2022-10-10T22:26:36.095Z,97918.00
2022-10-10T22:29:04.577Z,97920.00
2022-10-10T22:31:35.729Z,97915.00
2022-10-10T22:34:04.247Z,97914.00
2022-10-10T22:36:34.505Z,97911.00
2022-10-10T22:39:02.676Z,97925.00
2022-10-10T22:41:30.731Z,97926.00
2022-10-10T22:43:58.883Z,97922.00
2022-10-10T22:46:27.089Z,97922.00
2022-10-10T22:48:55.241Z,97937.00
2022-10-10T22:51:23.326Z,97924.00
2022-10-10T22:53:52.901Z,97932.00
2022-10-10T22:56:22.551Z,97936.00
2022-10-10T22:58:52.297Z,97926.00
2022-10-10T23:01:24.426Z,97934.00
2022-10-10T23:03:56.141Z,97930.00
2022-10-10T23:06:24.475Z,97921.00
2022-10-10T23:08:54.786Z,97936.00
2022-10-10T23:11:22.919Z,97925.00
2022-10-10T23:13:50.981Z,97934.00
2022-10-10T23:16:19.100Z,97933.00
2022-10-10T23:18:47.306Z,97921.00
2022-10-10T23:21:15.463Z,97934.00
2022-10-10T23:23:43.581Z,97939.00
2022-10-10T23:26:14.828Z,97941.00
2022-10-10T23:28:44.756Z,97942.00
2022-10-10T23:31:14.328Z,97952.00
2022-10-10T23:33:42.648Z,97928.00
2022-10-10T23:36:14.496Z,97939.00
2022-10-10T23:38:43.803Z,97944.00
2022-10-10T23:41:14.427Z,97941.00
2022-10-10T23:43:42.773Z,97949.00
2022-10-10T23:46:11.224Z,97943.00
2022-10-10T23:48:39.586Z,97938.00
2022-10-10T23:51:07.949Z,97954.00
2022-10-10T23:53:36.413Z,97959.00
2022-10-10T23:56:05.069Z,97955.00
2022-10-10T23:58:35.001Z,97956.00
